Currently 56°F in Temecula, California, USA
56°F
77°F / 40°F
2 mph E
0.00"
Tuesday, October 27, 2020 11:22 PM PDT

Temecula, California Weather Summary
Last 36 Hours

Temperature Winds Hourly Humidity Dewpoint
Time Report Norm Report Norm Max Gusts Precip. Rpt. Norm Rpt. Norm Pressure
1Tue 11:22 PM  56.2°F  59°F  2 mph E  1 mph  3 mph  0.00"  50%  71%  37°F  49°F  30.10"
Tue 11:00 PM  57.6°F  59°F  2 mph E  1 mph  7 mph  0.00"  49%  70%  38°F  49°F  30.09"
Tue 10:00 PM  59.3°F  61°F  1 mph SE  1 mph  8 mph  0.00"  47%  68%  38°F  50°F  30.09"
Tue 09:00 PM  60.5°F  63°F  5 mph S  1 mph  6 mph  0.00"  48%  65%  40°F  50°F  30.06"
Tue 08:00 PM  63.3°F  65°F  4 mph S  2 mph  9 mph  0.00"  44%  62%  40°F  51°F  30.04"
Tue 07:00 PM  65.1°F  67°F  3 mph S  3 mph  14 mph  0.00"  46%  57%  43°F  51°F  30.03"
Tue 06:00 PM  69.6°F  70°F  2 mph SW  4 mph  13 mph  0.00"  37%  52%  41°F  51°F  30.00"
Tue 05:00 PM  73.9°F  74°F  5 mph SW  5 mph  12 mph  0.00"  23%  45%  32°F  51°F  29.98"
2Tue 04:06 PM  76.5°F  77°F  5 mph W  6 mph  10 mph  ----  14%  40%  21°F  50°F  29.95"
Tue 04:00 PM  76.4°F  77°F  6 mph W  6 mph  9 mph  0.00"  14%  40%  21°F  50°F  29.94"
Tue 03:00 PM  76.0°F  79°F  2 mph NW  6 mph  14 mph  0.00"  13%  37%  19°F  50°F  29.93"
Tue 02:00 PM  74.8°F  79°F  6 mph W  6 mph  12 mph  0.00"  13%  36%  18°F  49°F  29.96"
Tue 01:00 PM  72.9°F  77°F  2 mph S  5 mph  10 mph  0.00"  14%  38%  19°F  49°F  29.99"
Tue 12:00 PM  70.6°F  74°F  1 mph E  4 mph  9 mph  0.00"  17%  44%  21°F  50°F  30.05"
Tue 11:00 AM  64.5°F  69°F  1 mph E  3 mph  5 mph  0.00"  28%  53%  29°F  50°F  30.06"
Tue 10:00 AM  56.5°F  63°F  calm  2 mph  3 mph  0.00"  36%  64%  29°F  50°F  30.08"
Tue 09:00 AM  47.2°F  57°F  calm  1 mph  5 mph  0.00"  50%  75%  29°F  49°F  30.08"
Tue 08:00 AM  41.2°F  53°F  calm  1 mph  4 mph  0.00"  62%  80%  28°F  47°F  30.08"
Tue 07:00 AM  40.7°F  53°F  calm  1 mph  4 mph  0.00"  63%  81%  29°F  47°F  30.08"
Tue 06:00 AM  40.3°F  53°F  2 mph W  1 mph  5 mph  0.00"  62%  80%  28°F  47°F  30.08"
3Tue 05:25 AM  39.9°F  54°F  calm  1 mph  3 mph  ----  59%  80%  26°F  47°F  30.06"
Tue 05:00 AM  41.1°F  54°F  2 mph W  1 mph  2 mph  0.00"  63%  79%  29°F  47°F  30.06"
Tue 04:00 AM  42.2°F  55°F  calm  1 mph  3 mph  0.00"  57%  79%  27°F  48°F  30.06"
Tue 03:00 AM  42.8°F  55°F  calm  1 mph  4 mph  0.00"  53%  77%  26°F  48°F  30.06"
Tue 02:00 AM  44.5°F  56°F  calm  1 mph  3 mph  0.00"  52%  76%  27°F  49°F  30.07"
Tue 01:00 AM  45.6°F  57°F  calm  1 mph  2 mph  0.00"  50%  74%  27°F  49°F  30.07"
Tue 12:00 AM  48.0°F  58°F  calm  1 mph  4 mph  0.00"  44%  73%  26°F  49°F  30.06"
Mon 11:00 PM  49.3°F  60°F  1 mph NE  1 mph  3 mph  0.00"  40%  71%  25°F  50°F  30.06"
Mon 10:00 PM  51.1°F  61°F  calm  1 mph  4 mph  0.00"  37%  68%  25°F  50°F  30.05"
Mon 09:00 PM  54.3°F  63°F  calm  2 mph  5 mph  0.00"  31%  65%  23°F  51°F  30.03"
Mon 08:00 PM  59.2°F  65°F  calm  2 mph  6 mph  0.00"  24%  62%  21°F  51°F  30.03"
Mon 07:00 PM  61.8°F  67°F  4 mph S  3 mph  13 mph  0.00"  17%  58%  14°F  52°F  30.01"
Mon 06:00 PM  64.9°F  71°F  4 mph NW  4 mph  12 mph  0.00"  14%  52%  12°F  52°F  29.98"
Mon 05:00 PM  67.7°F  75°F  1 mph NW  5 mph  16 mph  0.00"  13%  45%  13°F  52°F  29.98"
Mon 04:00 PM  67.7°F  78°F  12 mph W  6 mph  19 mph  0.00"  13%  40%  14°F  51°F  29.96"
Mon 03:00 PM  68.3°F  79°F  6 mph S  7 mph  17 mph  0.00"  15%  38%  17°F  50°F  29.93"
Mon 02:00 PM  68.0°F  79°F  4 mph W  6 mph  11 mph  0.00"  26%  37%  30°F  49°F  29.95"
Mon 01:00 PM  67.5°F  77°F  4 mph E  5 mph  14 mph  0.00"  26%  39%  30°F  49°F  29.98"
Mon 12:00 PM  64.7°F  74°F  8 mph NE  4 mph  16 mph  0.00"  23%  45%  24°F  51°F  30.03"

  1. Current weather data. No green row appears if the current weather data is also the high or low for the current day.
  2. High temperature for the current day.
  3. Low temperature for the current day.

The Temecula weather pages are a service of WeatherCurrents. Temecula, California is located in the Temecula Valley, in southwestern Riverside County, along the Interstate 15 highway. The Temecula Valley's rolling hills are home to the Temecula wine country, vineyards, golf courses, a casino resort, and Old Town Temecula.
Copyright ©2020  WeatherCurrents. All rights reserved. - Submit questions and comments - Privacy Policy

This page automatically refreshes every 10 minutes.